createdAt,value
2022-08-25T00:01:46.040Z,100.00
2022-08-25T00:04:16.924Z,100.00
2022-08-25T00:06:46.807Z,100.00
2022-08-25T00:09:16.961Z,100.00
2022-08-25T00:11:46.959Z,100.00
2022-08-25T00:14:18.475Z,100.00
2022-08-25T00:16:47.403Z,100.00
2022-08-25T00:19:18.161Z,100.00
2022-08-25T00:21:47.025Z,100.00
2022-08-25T00:24:17.473Z,100.00
2022-08-25T00:26:51.680Z,100.00
2022-08-25T00:29:20.147Z,100.00
2022-08-25T00:31:48.210Z,100.00
2022-08-25T00:34:22.202Z,100.00
2022-08-25T00:36:50.836Z,100.00
2022-08-25T00:39:20.980Z,100.00
2022-08-25T00:41:51.485Z,100.00
2022-08-25T00:44:20.041Z,100.00
2022-08-25T00:46:50.190Z,100.00
2022-08-25T00:49:25.299Z,100.00
2022-08-25T00:51:56.658Z,100.00
2022-08-25T00:54:28.919Z,100.00
2022-08-25T00:57:00.887Z,100.00
2022-08-25T00:59:29.473Z,100.00
2022-08-25T01:01:58.844Z,100.00
2022-08-25T01:04:27.815Z,100.00
2022-08-25T01:06:56.347Z,100.00
2022-08-25T01:09:24.226Z,100.00
2022-08-25T01:11:52.810Z,100.00
2022-08-25T01:14:24.472Z,100.00
2022-08-25T01:16:54.478Z,100.00
2022-08-25T01:19:22.564Z,100.00
2022-08-25T01:21:53.331Z,100.00
2022-08-25T01:24:27.194Z,100.00
2022-08-25T01:26:54.919Z,100.00
2022-08-25T01:29:22.836Z,100.00
2022-08-25T01:31:52.828Z,100.00
2022-08-25T01:34:22.379Z,100.00
2022-08-25T01:36:51.503Z,100.00
2022-08-25T01:39:19.397Z,100.00
2022-08-25T01:42:04.284Z,100.00
2022-08-25T01:44:33.366Z,100.00
2022-08-25T01:47:01.108Z,100.00
2022-08-25T01:49:28.900Z,100.00
2022-08-25T01:52:02.403Z,100.00
2022-08-25T01:54:30.132Z,100.00
2022-08-25T01:56:58.981Z,100.00
2022-08-25T01:59:27.782Z,100.00
2022-08-25T02:01:59.879Z,100.00
2022-08-25T02:04:29.489Z,100.00
2022-08-25T02:06:58.837Z,100.00
2022-08-25T02:09:26.715Z,100.00
2022-08-25T02:11:54.487Z,100.00
2022-08-25T02:14:22.958Z,100.00
2022-08-25T02:16:53.067Z,100.00
2022-08-25T02:19:22.566Z,100.00
2022-08-25T02:21:50.432Z,100.00
2022-08-25T02:24:20.296Z,100.00
2022-08-25T02:26:48.650Z,100.00
2022-08-25T02:29:16.841Z,100.00
2022-08-25T02:31:45.360Z,100.00
2022-08-25T02:34:15.165Z,100.00
2022-08-25T02:36:43.333Z,100.00
2022-08-25T02:39:12.172Z,100.00
2022-08-25T02:41:41.387Z,100.00
2022-08-25T02:44:10.643Z,100.00
2022-08-25T02:46:39.064Z,100.00
2022-08-25T02:49:07.547Z,100.00
2022-08-25T02:51:36.231Z,100.00
2022-08-25T02:54:05.368Z,100.00
2022-08-25T02:56:33.510Z,100.00
2022-08-25T02:59:03.360Z,100.00
2022-08-25T03:01:31.304Z,100.00
2022-08-25T03:03:59.814Z,100.00
2022-08-25T03:06:28.094Z,100.00
2022-08-25T03:08:56.334Z,100.00
2022-08-25T03:11:26.567Z,100.00
2022-08-25T03:13:54.353Z,100.00
2022-08-25T03:16:23.651Z,100.00
2022-08-25T03:18:55.813Z,100.00
2022-08-25T03:21:24.736Z,100.00
2022-08-25T03:23:52.533Z,100.00
2022-08-25T03:26:37.566Z,100.00
2022-08-25T03:29:05.829Z,100.00
2022-08-25T03:31:36.635Z,100.00
2022-08-25T03:34:04.638Z,100.00
2022-08-25T03:36:32.503Z,100.00
2022-08-25T03:39:00.630Z,100.00
2022-08-25T03:41:30.359Z,100.00
2022-08-25T03:43:58.411Z,100.00
2022-08-25T03:46:28.453Z,100.00
2022-08-25T03:48:58.020Z,100.00
2022-08-25T03:51:29.481Z,100.00
2022-08-25T03:53:57.786Z,100.00
2022-08-25T03:56:27.308Z,100.00
2022-08-25T03:58:55.508Z,100.00
2022-08-25T04:01:23.368Z,100.00
2022-08-25T04:03:51.218Z,100.00
2022-08-25T04:06:21.554Z,100.00
2022-08-25T04:08:52.574Z,100.00
2022-08-25T04:11:22.934Z,100.00
2022-08-25T04:13:51.870Z,100.00
2022-08-25T04:16:23.101Z,100.00
2022-08-25T04:18:52.293Z,100.00
2022-08-25T04:21:22.599Z,100.00
2022-08-25T04:23:51.888Z,100.00
2022-08-25T04:26:21.966Z,100.00
2022-08-25T04:28:50.470Z,100.00
2022-08-25T04:31:20.197Z,100.00
2022-08-25T04:33:48.334Z,100.00
2022-08-25T04:36:18.069Z,100.00
2022-08-25T04:38:49.485Z,100.00
2022-08-25T04:41:19.204Z,100.00
2022-08-25T04:43:47.253Z,100.00
2022-08-25T04:46:20.092Z,100.00
2022-08-25T04:48:48.410Z,100.00
2022-08-25T04:51:18.452Z,100.00
2022-08-25T04:53:48.076Z,100.00
2022-08-25T04:56:18.075Z,100.00
2022-08-25T04:58:47.091Z,100.00
2022-08-25T05:01:18.623Z,100.00
2022-08-25T05:03:48.334Z,100.00
2022-08-25T05:06:16.518Z,100.00
2022-08-25T05:08:45.914Z,100.00
2022-08-25T05:11:18.071Z,100.00
2022-08-25T05:13:51.635Z,100.00
2022-08-25T05:16:20.645Z,100.00
2022-08-25T05:18:48.940Z,100.00
2022-08-25T05:21:19.457Z,100.00
2022-08-25T05:23:47.587Z,100.00
2022-08-25T05:26:20.362Z,100.00
2022-08-25T05:28:50.331Z,100.00
2022-08-25T05:31:19.930Z,100.00
2022-08-25T05:33:48.072Z,100.00
2022-08-25T05:36:17.102Z,100.00
2022-08-25T05:38:44.979Z,100.00
2022-08-25T05:41:15.472Z,100.00
2022-08-25T05:43:46.508Z,100.00
2022-08-25T05:46:14.641Z,100.00
2022-08-25T05:48:42.735Z,100.00
2022-08-25T05:51:12.306Z,100.00
2022-08-25T05:53:42.501Z,100.00
2022-08-25T05:56:11.148Z,100.00
2022-08-25T05:58:39.240Z,100.00
2022-08-25T06:01:27.211Z,100.00
2022-08-25T06:03:55.089Z,100.00
2022-08-25T06:06:24.674Z,100.00
2022-08-25T06:08:52.803Z,100.00
2022-08-25T06:11:20.636Z,100.00
2022-08-25T06:13:48.444Z,100.00
2022-08-25T06:16:18.300Z,100.00
2022-08-25T06:18:46.147Z,100.00
2022-08-25T06:21:18.704Z,100.00
2022-08-25T06:23:46.433Z,100.00
2022-08-25T06:26:21.248Z,100.00
2022-08-25T06:28:49.451Z,100.00
2022-08-25T06:31:19.883Z,100.00
2022-08-25T06:33:47.749Z,100.00
2022-08-25T06:36:15.927Z,100.00
2022-08-25T06:38:43.876Z,100.00
2022-08-25T06:41:12.338Z,100.00
2022-08-25T06:43:45.057Z,100.00
2022-08-25T06:46:21.435Z,100.00
2022-08-25T06:48:49.476Z,100.00
2022-08-25T06:51:19.898Z,100.00
2022-08-25T06:53:49.367Z,100.00
2022-08-25T06:56:18.648Z,100.00
2022-08-25T06:58:47.629Z,100.00
2022-08-25T07:01:20.511Z,100.00
2022-08-25T07:03:49.235Z,100.00
2022-08-25T07:06:20.552Z,100.00
2022-08-25T07:08:48.669Z,100.00
2022-08-25T07:11:17.600Z,100.00
2022-08-25T07:13:46.287Z,100.00
2022-08-25T07:16:15.336Z,100.00
2022-08-25T07:18:45.175Z,100.00
2022-08-25T07:21:13.634Z,100.00
2022-08-25T07:23:42.248Z,100.00
2022-08-25T07:26:33.680Z,100.00
2022-08-25T07:29:00.058Z,100.00
2022-08-25T07:31:29.531Z,100.00
2022-08-25T07:34:16.833Z,100.00
2022-08-25T07:36:45.182Z,100.00
2022-08-25T07:39:13.476Z,100.00
2022-08-25T07:41:43.072Z,100.00
2022-08-25T07:44:12.995Z,100.00
2022-08-25T07:46:42.512Z,100.00
2022-08-25T07:49:16.667Z,100.00
2022-08-25T07:52:04.112Z,100.00
2022-08-25T07:54:34.533Z,100.00
2022-08-25T07:57:03.123Z,100.00
2022-08-25T07:59:30.949Z,100.00
2022-08-25T08:02:08.765Z,100.00
2022-08-25T08:04:38.828Z,100.00
2022-08-25T08:07:12.168Z,100.00
2022-08-25T08:09:40.096Z,100.00
2022-08-25T08:12:09.487Z,100.00
2022-08-25T08:14:37.240Z,100.00
2022-08-25T08:17:13.601Z,100.00
2022-08-25T08:19:45.368Z,100.00
2022-08-25T08:22:15.721Z,100.00
2022-08-25T08:24:54.767Z,100.00
2022-08-25T08:27:24.583Z,100.00
2022-08-25T08:29:53.528Z,100.00
2022-08-25T08:32:25.217Z,100.00
2022-08-25T08:35:05.585Z,100.00
2022-08-25T08:37:38.110Z,100.00
2022-08-25T08:40:10.370Z,100.00
2022-08-25T08:42:53.262Z,100.00
2022-08-25T08:45:30.130Z,100.00
2022-08-25T08:48:23.780Z,100.00
2022-08-25T08:51:02.801Z,100.00
2022-08-25T08:53:46.230Z,100.00
2022-08-25T08:56:17.654Z,100.00
2022-08-25T08:58:51.409Z,100.00
2022-08-25T09:01:27.381Z,100.00
2022-08-25T09:04:00.790Z,100.00
2022-08-25T09:06:34.994Z,100.00
2022-08-25T09:09:06.874Z,100.00
2022-08-25T09:11:51.762Z,100.00
2022-08-25T09:14:32.240Z,100.00
2022-08-25T09:17:03.071Z,100.00
2022-08-25T09:19:43.260Z,100.00
2022-08-25T09:22:35.220Z,100.00
2022-08-25T09:25:12.233Z,100.00
2022-08-25T09:27:47.296Z,100.00
2022-08-25T09:30:18.057Z,100.00
2022-08-25T09:32:52.233Z,100.00
2022-08-25T09:35:29.705Z,100.00
2022-08-25T09:38:00.354Z,100.00
2022-08-25T09:40:30.015Z,100.00
2022-08-25T09:43:00.004Z,100.00
2022-08-25T09:45:43.500Z,100.00
2022-08-25T09:48:25.835Z,100.00
2022-08-25T09:50:59.058Z,100.00
2022-08-25T09:53:33.714Z,100.00
2022-08-25T09:56:06.802Z,100.00
2022-08-25T09:58:34.791Z,100.00
2022-08-25T10:01:14.235Z,100.00
2022-08-25T10:04:02.591Z,100.00
2022-08-25T10:06:36.685Z,100.00
2022-08-25T10:09:08.927Z,100.00
2022-08-25T10:11:43.628Z,100.00
2022-08-25T10:14:21.568Z,100.00
2022-08-25T10:16:50.679Z,100.00
2022-08-25T10:19:27.931Z,100.00
2022-08-25T10:22:08.140Z,100.00
2022-08-25T10:24:44.187Z,100.00
2022-08-25T10:27:23.303Z,100.00
2022-08-25T10:30:19.030Z,100.00
2022-08-25T10:33:10.736Z,100.00
2022-08-25T10:35:50.780Z,100.00
2022-08-25T10:38:36.255Z,100.00
2022-08-25T10:41:10.370Z,100.00
2022-08-25T10:43:48.261Z,100.00
2022-08-25T10:46:27.107Z,100.00
2022-08-25T10:49:05.186Z,100.00
2022-08-25T10:51:46.833Z,100.00
2022-08-25T10:54:31.407Z,100.00
2022-08-25T10:57:08.883Z,100.00
2022-08-25T11:00:02.934Z,91.95
2022-08-25T11:02:58.688Z,94.63
2022-08-25T11:05:31.380Z,82.97
2022-08-25T11:08:07.226Z,76.73
2022-08-25T11:10:42.783Z,76.83
2022-08-25T11:13:18.015Z,74.76
2022-08-25T11:16:15.892Z,69.48
2022-08-25T11:18:51.185Z,70.74
2022-08-25T11:21:24.312Z,74.35
2022-08-25T11:23:59.900Z,74.88
2022-08-25T11:26:36.983Z,75.39
2022-08-25T11:29:13.591Z,74.90
2022-08-25T11:31:47.328Z,78.51
2022-08-25T11:34:19.535Z,82.49
2022-08-25T11:36:53.436Z,76.74
2022-08-25T11:39:35.566Z,73.35
2022-08-25T11:42:15.949Z,72.61
2022-08-25T11:44:56.178Z,73.95
2022-08-25T11:47:42.229Z,80.40
2022-08-25T11:50:30.161Z,80.53
2022-08-25T11:53:02.080Z,80.30
2022-08-25T11:55:48.465Z,77.65
2022-08-25T11:58:42.262Z,80.03
2022-08-25T12:01:33.571Z,82.54
2022-08-25T12:04:34.181Z,80.05
2022-08-25T12:07:22.877Z,85.97
2022-08-25T12:10:20.925Z,82.51
2022-08-25T12:13:02.462Z,83.40
2022-08-25T12:15:55.948Z,76.32
2022-08-25T12:18:45.762Z,71.30
2022-08-25T12:21:17.169Z,75.45
2022-08-25T12:23:51.581Z,76.48
2022-08-25T12:26:31.720Z,75.75
2022-08-25T12:29:08.458Z,76.36
2022-08-25T12:31:59.168Z,75.88
2022-08-25T12:34:55.192Z,72.69
2022-08-25T12:37:26.117Z,74.23
2022-08-25T12:40:00.701Z,78.61
2022-08-25T12:42:34.650Z,79.16
2022-08-25T12:45:36.356Z,88.05
2022-08-25T12:48:41.115Z,81.32
2022-08-25T12:51:17.166Z,81.04
2022-08-25T12:53:51.030Z,75.13
2022-08-25T12:56:26.002Z,75.66
2022-08-25T12:59:02.295Z,74.94
2022-08-25T13:01:43.360Z,76.47
2022-08-25T13:04:41.493Z,78.90
2022-08-25T13:07:29.643Z,79.59
2022-08-25T13:10:19.688Z,77.23
2022-08-25T13:12:52.087Z,77.77
2022-08-25T13:15:35.579Z,80.72
2022-08-25T13:18:20.782Z,88.29
2022-08-25T13:20:50.760Z,78.23
2022-08-25T13:23:29.375Z,78.11
2022-08-25T13:25:59.699Z,80.34
2022-08-25T13:28:31.821Z,83.11
2022-08-25T13:31:06.164Z,81.91
2022-08-25T13:33:35.545Z,82.97
2022-08-25T13:36:22.249Z,84.17
2022-08-25T13:38:51.051Z,88.37
2022-08-25T13:41:28.662Z,90.07
2022-08-25T13:44:00.933Z,92.88
2022-08-25T13:46:29.929Z,96.73
2022-08-25T13:49:05.662Z,93.05
2022-08-25T13:51:34.283Z,92.78
2022-08-25T13:54:06.067Z,96.89
2022-08-25T13:56:41.127Z,98.79
2022-08-25T13:59:24.212Z,99.29
2022-08-25T14:01:56.338Z,98.91
2022-08-25T14:04:31.419Z,97.72
2022-08-25T14:07:14.453Z,97.54
2022-08-25T14:09:49.858Z,100.00
2022-08-25T14:12:29.344Z,93.48
2022-08-25T14:15:03.157Z,94.65
2022-08-25T14:17:39.382Z,90.29
2022-08-25T14:20:21.927Z,87.11
2022-08-25T14:22:55.448Z,84.96
2022-08-25T14:25:26.684Z,81.06
2022-08-25T14:28:10.760Z,80.18
2022-08-25T14:30:49.458Z,73.67
2022-08-25T14:33:23.532Z,77.50
2022-08-25T14:35:54.193Z,77.78
2022-08-25T14:38:24.739Z,74.40
2022-08-25T14:40:53.540Z,76.32
2022-08-25T14:43:24.176Z,75.35
2022-08-25T14:46:00.777Z,73.67
2022-08-25T14:48:34.223Z,75.71
2022-08-25T14:51:02.429Z,74.16
2022-08-25T14:53:30.364Z,75.92
2022-08-25T14:55:59.265Z,74.09
2022-08-25T14:58:34.078Z,74.49
2022-08-25T15:01:02.429Z,77.09
2022-08-25T15:03:33.610Z,74.38
2022-08-25T15:06:02.373Z,74.66
2022-08-25T15:08:49.398Z,77.96
2022-08-25T15:11:17.759Z,76.21
2022-08-25T15:13:49.669Z,77.47
2022-08-25T15:16:23.219Z,79.12
2022-08-25T15:18:51.199Z,81.54
2022-08-25T15:21:21.491Z,80.94
2022-08-25T15:23:51.032Z,80.81
2022-08-25T15:26:25.636Z,82.06
2022-08-25T15:28:55.097Z,86.54
2022-08-25T15:31:23.593Z,87.51
2022-08-25T15:33:51.530Z,92.72
2022-08-25T15:36:24.995Z,90.06
2022-08-25T15:38:53.401Z,90.89
2022-08-25T15:41:22.456Z,92.68
2022-08-25T15:43:56.688Z,99.45
2022-08-25T15:46:26.157Z,98.67
2022-08-25T15:51:23.235Z,92.16
2022-08-25T15:53:51.018Z,89.61
2022-08-25T15:56:26.473Z,93.14
2022-08-25T15:58:56.415Z,93.49
2022-08-25T16:01:27.420Z,90.74
2022-08-25T16:03:58.991Z,94.18
2022-08-25T16:06:28.100Z,89.79
2022-08-25T16:08:55.931Z,89.17
2022-08-25T16:11:25.603Z,88.73
2022-08-25T16:13:54.806Z,83.46
2022-08-25T16:16:26.152Z,81.26
2022-08-25T16:18:54.351Z,80.33
2022-08-25T16:21:29.041Z,87.95
2022-08-25T16:23:59.858Z,85.42
2022-08-25T16:26:30.551Z,84.83
2022-08-25T16:28:58.837Z,84.51
2022-08-25T16:31:28.060Z,91.60
2022-08-25T16:33:58.246Z,92.31
2022-08-25T16:36:28.091Z,96.40
2022-08-25T16:38:57.244Z,96.70
2022-08-25T16:41:33.876Z,100.00
2022-08-25T16:44:02.338Z,100.00
2022-08-25T16:46:32.269Z,100.00
2022-08-25T16:49:02.078Z,100.00
2022-08-25T16:51:32.592Z,100.00
2022-08-25T16:54:22.281Z,100.00
2022-08-25T16:56:54.674Z,95.29
2022-08-25T16:59:23.377Z,90.28
2022-08-25T17:01:53.946Z,84.15
2022-08-25T17:04:29.482Z,81.44
2022-08-25T17:06:59.881Z,89.00
2022-08-25T17:09:27.759Z,100.00
2022-08-25T17:11:57.173Z,100.00
2022-08-25T17:14:25.124Z,100.00
2022-08-25T17:16:55.461Z,100.00
2022-08-25T17:19:25.011Z,100.00
2022-08-25T17:21:54.467Z,100.00
2022-08-25T17:24:29.682Z,100.00
2022-08-25T17:27:00.111Z,100.00
2022-08-25T17:29:29.289Z,100.00
2022-08-25T17:31:59.450Z,100.00
2022-08-25T17:34:29.304Z,100.00
2022-08-25T17:36:58.379Z,100.00
2022-08-25T17:39:27.766Z,100.00
2022-08-25T17:41:56.200Z,100.00
2022-08-25T17:44:23.968Z,100.00
2022-08-25T17:46:51.942Z,100.00
2022-08-25T17:49:22.440Z,100.00
2022-08-25T17:51:50.954Z,100.00
2022-08-25T17:54:20.067Z,100.00
2022-08-25T17:56:48.640Z,100.00
2022-08-25T17:59:16.781Z,100.00
2022-08-25T18:01:45.683Z,100.00
2022-08-25T18:04:17.552Z,100.00
2022-08-25T18:06:48.371Z,100.00
2022-08-25T18:09:16.394Z,100.00
2022-08-25T18:11:45.420Z,100.00
2022-08-25T18:14:13.858Z,100.00
2022-08-25T18:16:42.234Z,100.00
2022-08-25T18:19:10.767Z,100.00
2022-08-25T18:21:38.914Z,100.00
2022-08-25T18:24:09.113Z,100.00
2022-08-25T18:26:37.008Z,100.00
2022-08-25T18:29:05.573Z,100.00
2022-08-25T18:31:33.435Z,100.00
2022-08-25T18:34:02.168Z,100.00
2022-08-25T18:36:33.223Z,100.00
2022-08-25T18:39:26.096Z,100.00
2022-08-25T18:41:53.923Z,100.00
2022-08-25T18:44:21.760Z,100.00
2022-08-25T18:46:49.690Z,100.00
2022-08-25T18:50:45.395Z,100.00
2022-08-25T18:53:14.020Z,100.00
2022-08-25T18:55:43.242Z,100.00
2022-08-25T18:58:14.280Z,100.00
2022-08-25T19:00:44.707Z,100.00
2022-08-25T19:03:15.661Z,100.00
2022-08-25T19:05:49.379Z,100.00
2022-08-25T19:08:25.873Z,100.00
2022-08-25T19:10:54.458Z,100.00
2022-08-25T19:13:22.804Z,100.00
2022-08-25T19:15:52.457Z,100.00
2022-08-25T19:18:26.175Z,100.00
2022-08-25T19:20:59.273Z,100.00
2022-08-25T19:23:27.161Z,100.00
2022-08-25T19:25:54.928Z,100.00
2022-08-25T19:28:24.891Z,100.00
2022-08-25T19:30:52.871Z,100.00
2022-08-25T19:33:42.318Z,100.00
2022-08-25T19:36:10.698Z,100.00
2022-08-25T19:38:39.402Z,100.00
2022-08-25T19:41:10.413Z,100.00
2022-08-25T19:43:54.934Z,100.00
2022-08-25T19:46:25.818Z,100.00
2022-08-25T19:49:06.937Z,100.00
2022-08-25T19:51:37.381Z,100.00
2022-08-25T19:54:05.829Z,100.00
2022-08-25T19:56:35.124Z,100.00
2022-08-25T19:59:04.879Z,100.00
2022-08-25T20:01:33.018Z,100.00
2022-08-25T20:04:03.517Z,100.00
2022-08-25T20:06:32.205Z,100.00
2022-08-25T20:09:01.535Z,100.00
2022-08-25T20:11:30.161Z,100.00
2022-08-25T20:14:00.479Z,100.00
2022-08-25T20:16:31.438Z,100.00
2022-08-25T20:19:00.033Z,100.00
2022-08-25T20:21:30.916Z,100.00
2022-08-25T20:24:15.902Z,100.00
2022-08-25T20:26:45.052Z,100.00
2022-08-25T20:29:14.085Z,100.00
2022-08-25T20:31:41.831Z,100.00
2022-08-25T20:34:11.596Z,100.00
2022-08-25T20:36:49.964Z,100.00
2022-08-25T20:39:18.388Z,100.00
2022-08-25T20:41:48.373Z,100.00
2022-08-25T20:44:16.551Z,100.00
2022-08-25T20:46:45.282Z,100.00
2022-08-25T20:49:13.643Z,100.00
2022-08-25T20:51:41.637Z,100.00
2022-08-25T20:54:14.075Z,100.00
2022-08-25T20:56:42.645Z,100.00
2022-08-25T20:59:11.853Z,100.00
2022-08-25T21:01:41.143Z,100.00
2022-08-25T21:04:11.272Z,100.00
2022-08-25T21:06:43.517Z,100.00
2022-08-25T21:09:15.626Z,100.00
2022-08-25T21:11:44.112Z,100.00
2022-08-25T21:14:15.133Z,100.00
2022-08-25T21:16:46.397Z,100.00
2022-08-25T21:19:16.669Z,100.00
2022-08-25T21:21:59.970Z,100.00
2022-08-25T21:24:29.234Z,100.00
2022-08-25T21:26:59.347Z,100.00
2022-08-25T21:29:30.157Z,100.00
2022-08-25T21:31:59.669Z,100.00
2022-08-25T21:34:29.053Z,100.00
2022-08-25T21:36:57.952Z,100.00
2022-08-25T21:39:28.062Z,100.00
2022-08-25T21:41:58.530Z,100.00
2022-08-25T21:44:29.290Z,100.00
2022-08-25T21:46:57.377Z,100.00
2022-08-25T21:49:26.045Z,100.00
2022-08-25T21:52:01.006Z,100.00
2022-08-25T21:54:30.432Z,100.00
2022-08-25T21:57:01.229Z,100.00
2022-08-25T21:59:32.482Z,100.00
2022-08-25T22:02:02.761Z,100.00
2022-08-25T22:04:31.640Z,100.00
2022-08-25T22:06:59.417Z,100.00
2022-08-25T22:09:28.452Z,100.00
2022-08-25T22:11:56.901Z,100.00
2022-08-25T22:14:27.544Z,100.00
2022-08-25T22:16:57.127Z,100.00
2022-08-25T22:19:25.409Z,100.00
2022-08-25T22:21:54.441Z,100.00
2022-08-25T22:24:22.595Z,100.00
2022-08-25T22:26:56.467Z,100.00
2022-08-25T22:29:26.006Z,100.00
2022-08-25T22:31:57.720Z,100.00
2022-08-25T22:34:32.952Z,100.00
2022-08-25T22:37:01.356Z,100.00
2022-08-25T22:39:29.429Z,100.00
2022-08-25T22:41:57.170Z,100.00
2022-08-25T22:44:25.428Z,100.00
2022-08-25T22:46:53.752Z,100.00
2022-08-25T22:49:21.868Z,100.00
2022-08-25T22:51:51.360Z,100.00
2022-08-25T22:54:23.209Z,100.00
2022-08-25T22:56:53.265Z,100.00
2022-08-25T22:59:22.184Z,100.00
2022-08-25T23:06:46.433Z,100.00
2022-08-25T23:09:15.426Z,100.00
2022-08-25T23:11:43.717Z,100.00
2022-08-25T23:14:12.916Z,100.00
2022-08-25T23:16:42.097Z,100.00
2022-08-25T23:19:10.915Z,100.00
2022-08-25T23:21:58.829Z,100.00
2022-08-25T23:24:29.731Z,100.00
2022-08-25T23:26:58.817Z,100.00
2022-08-25T23:29:27.539Z,100.00
2022-08-25T23:31:55.410Z,100.00
2022-08-25T23:34:23.621Z,100.00
2022-08-25T23:36:51.662Z,100.00
2022-08-25T23:39:21.630Z,100.00
2022-08-25T23:41:51.471Z,100.00
2022-08-25T23:44:19.806Z,100.00
2022-08-25T23:46:48.571Z,100.00
2022-08-25T23:49:18.693Z,100.00
2022-08-25T23:51:48.002Z,100.00
2022-08-25T23:54:17.833Z,100.00
2022-08-25T23:56:52.021Z,100.00
2022-08-25T23:59:24.206Z,100.00
